Accueil
METAR-TAF:

METAR-TAF

Aéroports :

Aéroport de Lanzarote

Lanzarote, Espagne

latitude: 28-57N, longitude: 013-36W, altitude: 14 m

Observation

Le bulletin a été fait il y a 18 minutes, à 13:30 UTC
Vent 12 kt de nord, variant entre nord/nord-ouest et nord/nord-est
Température 25°C
Humidité 61%
Pression 1018 hPa
Visibilité 10 km ou plus
Quelques nuages à une hauteur de 3500 ft
Nuages fragmentés à une hauteur de 4500 ft

METAR: GCRR 251330Z 36012KT 330V030 9999 FEW035 BKN045 25/17 Q1018

Heure: 14:48 (13:48 UTC)

Prévision

Le bulletin a été fait il y a 5 heures et 48 minutes, à 08:00 UTC
Prévision valable du 25 à 09 UTC au 26 à 09 UTC
Vent 8 kt de nord/nord-est
Visibilité 10 km ou plus
Quelques nuages à une hauteur de 3500 ft

TAF: GCRR 250800Z 2509/2609 02008KT 9999 FEW035 TX28/2514Z TN19/2606Z

Observations et prévisions météorologiques de plus de 4000 aéroports (messages METAR et TAF).

Les stations disponibles sont représentées par des disques jaunes et rouges sur la carte.

Passer la souris dessus pour voir le nom de la station.

Cliquer dessus pour voir les observations et prévisions météorologiques.

Pour changer de carte: cliquez sur les boutons verts avec une croix noire pour zoomer, sur le bouton vert avec un tiret pour effectuer un zoom arrière, ou sur les flèches vertes pour les cartes adjacentes.


METAR-TAF: